Time;durP1;ratioP1;P1;durP2;ratioP2;P2;SDS_P1;SDS_P2;PMS_P1;PMS_P2;Temp;Humidity;BMP_temperature;BMP_pressure;BME280_temperature;BME280_humidity;BME280_pressure;Samples;Min_cycle;Max_cycle;Signal;HPM_P1;HPM_P2
2022/12/05 00:02:13;;;;;;;21.20;13.90;;;1.20;99.90;;;;;;5052907;28;20229;-75
2022/12/05 00:04:42;;;;;;;19.17;13.43;;;1.20;99.90;;;;;;5053516;28;20216;-76
2022/12/05 00:07:11;;;;;;;20.97;14.40;;;1.20;99.90;;;;;;5053301;28;20208;-74
2022/12/05 00:09:39;;;;;;;19.90;14.20;;;1.10;99.90;;;;;;5052805;28;20204;-77
2022/12/05 00:12:07;;;;;;;21.37;13.83;;;1.10;99.90;;;;;;5052561;28;20319;-78
2022/12/05 00:14:35;;;;;;;21.07;14.67;;;1.10;99.90;;;;;;5058688;28;20231;-76
2022/12/05 00:17:05;;;;;;;20.97;14.40;;;1.20;99.90;;;;;;5073298;28;20223;-76
2022/12/05 00:19:33;;;;;;;20.80;15.17;;;1.10;99.90;;;;;;5072364;28;20297;-76
2022/12/05 00:22:04;;;;;;;21.50;14.23;;;1.10;99.90;;;;;;5072119;28;20583;-73
2022/12/05 00:24:33;;;;;;;23.70;15.23;;;1.10;99.90;;;;;;5054165;28;20205;-73
2022/12/05 00:27:01;;;;;;;21.17;14.73;;;1.10;99.90;;;;;;5054180;28;20212;-75
2022/12/05 00:29:29;;;;;;;22.50;14.60;;;1.10;99.90;;;;;;5054698;28;20303;-76
2022/12/05 00:31:57;;;;;;;23.53;15.23;;;1.10;99.90;;;;;;5054914;28;20211;-75
2022/12/05 00:34:27;;;;;;;24.43;15.43;;;1.10;99.90;;;;;;5052715;28;20266;-77
2022/12/05 00:36:55;;;;;;;23.60;15.47;;;1.20;99.90;;;;;;5052282;28;20215;-74
2022/12/05 00:39:23;;;;;;;23.93;15.83;;;1.10;99.90;;;;;;5052220;28;20216;-75
2022/12/05 00:41:51;;;;;;;22.63;15.20;;;1.20;99.90;;;;;;5052923;28;20548;-74
2022/12/05 00:44:19;;;;;;;22.63;15.27;;;1.20;99.90;;;;;;5061381;28;20693;-78
2022/12/05 00:46:47;;;;;;;21.43;14.83;;;1.10;99.90;;;;;;5052676;28;20208;-78
2022/12/05 00:49:15;;;;;;;22.90;14.77;;;1.20;99.90;;;;;;5056441;28;20309;-75
2022/12/05 00:51:45;;;;;;;21.23;15.13;;;1.20;99.90;;;;;;5070102;28;20223;-78
2022/12/05 00:54:15;;;;;;;23.87;15.27;;;1.20;99.90;;;;;;5070734;28;20237;-78
2022/12/05 00:56:43;;;;;;;23.43;15.73;;;1.20;99.90;;;;;;5071715;28;20204;-78
2022/12/05 00:59:16;;;;;;;22.97;15.83;;;1.20;99.90;;;;;;5072069;28;20234;-76
2022/12/05 01:01:46;;;;;;;22.97;16.07;;;1.20;99.90;;;;;;5068453;28;20673;-77
2022/12/05 01:04:17;;;;;;;21.50;15.30;;;1.10;99.90;;;;;;5070459;28;20203;-77
2022/12/05 01:06:47;;;;;;;22.13;14.63;;;1.10;99.90;;;;;;5071722;28;20642;-75
2022/12/05 01:09:17;;;;;;;23.23;14.30;;;1.20;99.90;;;;;;5072443;28;20219;-78
2022/12/05 01:11:46;;;;;;;22.10;14.77;;;1.20;99.90;;;;;;5071970;28;20211;-75
2022/12/05 01:14:15;;;;;;;22.03;14.43;;;1.20;99.90;;;;;;5072424;28;20649;-78
2022/12/05 01:16:46;;;;;;;22.20;14.60;;;1.20;99.90;;;;;;5072321;28;20227;-74
2022/12/05 01:19:18;;;;;;;23.97;15.73;;;1.20;99.90;;;;;;5083815;28;20294;-77
2022/12/05 01:21:48;;;;;;;23.17;15.33;;;1.20;99.90;;;;;;5080051;28;20215;-78
2022/12/05 01:24:18;;;;;;;23.03;14.93;;;1.20;99.90;;;;;;5071693;28;20665;-79
2022/12/05 01:26:47;;;;;;;21.87;14.67;;;1.20;99.90;;;;;;5071994;28;20205;-78
2022/12/05 01:29:17;;;;;;;22.80;15.43;;;1.20;99.90;;;;;;5087873;28;20298;-77
2022/12/05 01:31:46;;;;;;;21.77;15.03;;;1.20;99.90;;;;;;5071448;28;20467;-77
2022/12/05 01:34:16;;;;;;;21.87;14.40;;;1.10;99.90;;;;;;5072347;28;20204;-78
2022/12/05 01:36:45;;;;;;;24.80;15.67;;;1.20;99.90;;;;;;5071732;28;20234;-78
2022/12/05 01:39:15;;;;;;;21.00;14.97;;;1.10;99.90;;;;;;5071996;28;20203;-77
2022/12/05 01:41:45;;;;;;;23.07;16.10;;;1.10;99.90;;;;;;5075466;28;20210;-76
2022/12/05 01:44:50;;;;;;;24.63;15.83;;;1.10;99.90;;;;;;5075013;28;20196;-74
2022/12/05 01:47:19;;;;;;;21.90;15.93;;;1.10;99.90;;;;;;5078848;28;20207;-76
2022/12/05 01:49:47;;;;;;;23.40;15.57;;;1.00;99.90;;;;;;5078603;28;20220;-75
2022/12/05 01:52:19;;;;;;;23.53;15.80;;;1.10;99.90;;;;;;5076631;28;20218;-77
2022/12/05 01:54:50;;;;;;;24.37;16.40;;;1.10;99.90;;;;;;5076032;28;20683;-78
2022/12/05 01:57:18;;;;;;;22.73;15.63;;;1.10;99.90;;;;;;5075695;28;20204;-77
2022/12/05 01:59:52;;;;;;;24.30;15.70;;;1.10;99.90;;;;;;5075392;28;20218;-79
2022/12/05 02:02:22;;;;;;;23.53;15.23;;;1.10;99.90;;;;;;5074863;28;20485;-80
2022/12/05 02:04:58;;;;;;;25.73;16.13;;;1.10;99.90;;;;;;5075256;28;20192;-79
2022/12/05 02:07:27;;;;;;;25.30;16.60;;;1.10;99.90;;;;;;5075163;28;20197;-80
2022/12/05 02:09:56;;;;;;;22.70;15.97;;;1.10;99.90;;;;;;5082608;28;20675;-79
2022/12/05 02:12:25;;;;;;;24.10;15.87;;;1.10;99.90;;;;;;5094652;28;20199;-78
2022/12/05 02:15:15;;;;;;;24.60;16.23;;;1.10;99.90;;;;;;5095340;28;20305;-79
2022/12/05 02:17:51;;;;;;;25.70;16.47;;;1.10;99.90;;;;;;5099451;27;20211;-76
2022/12/05 02:20:32;;;;;;;25.60;17.00;;;1.00;99.90;;;;;;5075249;28;20203;-78
2022/12/05 02:23:16;;;;;;;22.30;15.83;;;1.00;99.90;;;;;;5074489;28;20430;-78
2022/12/05 02:26:00;;;;;;;26.00;16.03;;;1.00;99.90;;;;;;5074231;28;20493;-79
2022/12/05 02:28:55;;;;;;;24.20;15.67;;;1.00;99.90;;;;;;5075129;28;20191;-78
2022/12/05 02:31:30;;;;;;;23.47;15.87;;;1.00;99.90;;;;;;5074894;28;20216;-75
2022/12/05 02:34:07;;;;;;;23.57;15.57;;;0.90;99.90;;;;;;5074683;28;20220;-77
2022/12/05 02:36:40;;;;;;;25.87;16.93;;;0.90;99.90;;;;;;5074328;28;20211;-78
2022/12/05 02:39:15;;;;;;;25.60;16.00;;;1.00;99.90;;;;;;5074798;28;20199;-80
2022/12/05 02:41:50;;;;;;;23.23;15.23;;;1.00;99.90;;;;;;5089491;28;20206;-79
2022/12/05 02:44:25;;;;;;;22.50;14.53;;;0.90;99.90;;;;;;5074377;28;20215;-79
2022/12/05 02:46:57;;;;;;;21.77;14.60;;;0.90;99.90;;;;;;5074280;28;20252;-79
2022/12/05 02:49:30;;;;;;;22.93;14.73;;;0.80;99.90;;;;;;5074527;28;20192;-78
2022/12/05 02:52:01;;;;;;;20.83;14.83;;;0.90;99.90;;;;;;5074139;28;20207;-78
2022/12/05 02:54:33;;;;;;;22.17;13.80;;;0.90;99.90;;;;;;5073483;28;20242;-77
2022/12/05 02:57:01;;;;;;;24.27;15.73;;;0.90;99.90;;;;;;5073896;28;20671;-77
2022/12/05 02:59:29;;;;;;;26.30;15.77;;;0.90;99.90;;;;;;5073256;28;20729;-78
2022/12/05 03:01:59;;;;;;;22.73;15.80;;;0.90;99.90;;;;;;5080701;28;20461;-76
2022/12/05 03:04:29;;;;;;;22.97;15.77;;;0.90;99.90;;;;;;5094366;28;20540;-78
2022/12/05 03:07:00;;;;;;;26.00;17.07;;;0.90;99.90;;;;;;5095045;28;20199;-78
2022/12/05 03:09:34;;;;;;;27.80;16.93;;;1.00;99.90;;;;;;5094043;28;20209;-77
2022/12/05 03:12:10;;;;;;;26.50;16.63;;;1.00;99.90;;;;;;5074252;28;20196;-79
2022/12/05 03:14:43;;;;;;;26.20;16.10;;;1.00;99.90;;;;;;5073995;28;20203;-79
2022/12/05 03:17:19;;;;;;;27.33;17.40;;;1.00;99.90;;;;;;5092354;28;20602;-78
2022/12/05 03:19:53;;;;;;;25.77;16.27;;;1.00;99.90;;;;;;5077246;28;20569;-79
2022/12/05 03:22:30;;;;;;;27.00;15.90;;;1.00;99.90;;;;;;5073339;28;20520;-77
2022/12/05 03:24:59;;;;;;;26.40;16.63;;;0.90;99.90;;;;;;5074075;28;20211;-77
2022/12/05 03:27:30;;;;;;;30.43;17.53;;;1.00;99.90;;;;;;5073934;28;20230;-79
2022/12/05 03:30:04;;;;;;;29.70;16.77;;;0.90;99.90;;;;;;5086949;28;20209;-78
2022/12/05 03:32:39;;;;;;;27.27;17.20;;;0.90;99.90;;;;;;5088810;28;20205;-75
2022/12/05 03:35:12;;;;;;;31.70;18.73;;;0.90;99.90;;;;;;5093905;28;20210;-77
2022/12/05 03:37:51;;;;;;;30.80;18.60;;;0.90;99.90;;;;;;5094043;28;20210;-79
2022/12/05 03:40:27;;;;;;;29.73;17.43;;;0.90;99.90;;;;;;5091630;28;20430;-78
2022/12/05 03:43:01;;;;;;;31.23;17.97;;;0.90;99.90;;;;;;5073074;28;20203;-78
2022/12/05 03:45:37;;;;;;;31.43;18.17;;;0.80;99.90;;;;;;5073101;28;20450;-79
2022/12/05 03:48:14;;;;;;;31.33;18.23;;;0.80;99.90;;;;;;5073266;28;20183;-78
2022/12/05 03:50:46;;;;;;;30.70;17.43;;;0.90;99.90;;;;;;5073369;28;20215;-78
2022/12/05 03:53:18;;;;;;;33.23;17.70;;;0.80;99.90;;;;;;5072455;28;20239;-79
2022/12/05 03:55:58;;;;;;;30.53;17.77;;;0.80;99.90;;;;;;5073227;28;20566;-80
2022/12/05 03:58:30;;;;;;;31.27;17.53;;;0.70;99.90;;;;;;5072598;28;20469;-79
2022/12/05 04:01:01;;;;;;;34.93;17.83;;;0.80;99.90;;;;;;5072508;28;20439;-79
2022/12/05 04:03:38;;;;;;;31.50;17.13;;;0.80;99.90;;;;;;5071532;28;20204;-79
2022/12/05 04:06:14;;;;;;;31.80;17.60;;;0.70;99.90;;;;;;5087681;28;20207;-78
2022/12/05 04:08:47;;;;;;;34.17;18.37;;;0.80;99.90;;;;;;5072722;28;20468;-77
2022/12/05 04:11:19;;;;;;;37.17;18.83;;;0.70;99.90;;;;;;5072553;28;20203;-75
2022/12/05 04:13:52;;;;;;;35.73;18.60;;;0.80;99.90;;;;;;5073436;28;20911;-79
2022/12/05 04:19:19;;;;;;;38.23;18.57;;;0.80;99.90;;;;;;5074471;28;20466;-80
2022/12/05 04:21:50;;;;;;;40.43;20.17;;;0.80;99.90;;;;;;5071935;28;20663;-80
2022/12/05 04:27:23;;;;;;;36.33;19.67;;;0.90;99.90;;;;;;5073284;28;20200;-78
2022/12/05 04:29:59;;;;;;;34.70;18.83;;;0.90;99.90;;;;;;5092070;28;20429;-79
2022/12/05 04:32:33;;;;;;;38.70;19.27;;;0.90;99.90;;;;;;5092027;28;20281;-78
2022/12/05 04:35:09;;;;;;;33.33;18.20;;;1.00;99.90;;;;;;5092194;28;20201;-80
2022/12/05 04:37:42;;;;;;;36.67;19.30;;;1.00;99.90;;;;;;5085175;28;20678;-79
2022/12/05 04:40:15;;;;;;;37.67;18.40;;;1.00;99.90;;;;;;5071845;28;20196;-79
2022/12/05 04:42:45;;;;;;;34.93;19.37;;;1.00;99.90;;;;;;5071876;28;20196;-79
2022/12/05 04:45:17;;;;;;;39.73;19.97;;;1.00;99.90;;;;;;5078730;28;20199;-79
2022/12/05 04:47:51;;;;;;;39.90;20.53;;;1.00;99.90;;;;;;5091659;28;20206;-79
2022/12/05 04:50:24;;;;;;;41.47;21.63;;;1.10;99.90;;;;;;5092040;28;20195;-79
2022/12/05 04:52:55;;;;;;;43.70;22.83;;;1.00;99.90;;;;;;5089927;28;20238;-80
2022/12/05 04:55:26;;;;;;;38.73;21.37;;;1.00;99.90;;;;;;5071621;28;20196;-78
2022/12/05 04:58:06;;;;;;;40.33;22.93;;;1.10;99.90;;;;;;5071833;28;20234;-79
2022/12/05 05:00:39;;;;;;;41.07;22.07;;;1.10;99.90;;;;;;5071690;28;20204;-79
2022/12/05 05:03:13;;;;;;;39.53;22.00;;;1.10;99.90;;;;;;5071206;28;20203;-78
2022/12/05 05:05:46;;;;;;;43.13;22.57;;;1.10;99.90;;;;;;5072056;28;20214;-80
2022/12/05 05:08:18;;;;;;;39.87;22.90;;;1.10;99.90;;;;;;5071879;28;20302;-77
2022/12/05 05:10:56;;;;;;;35.57;22.53;;;1.10;99.90;;;;;;5078073;28;20279;-77
2022/12/05 05:13:24;;;;;;;32.63;21.30;;;1.20;99.90;;;;;;5091586;28;20279;-78
2022/12/05 05:15:52;;;;;;;33.63;20.80;;;1.20;99.90;;;;;;5095075;28;20205;-79
2022/12/05 05:18:22;;;;;;;33.80;19.70;;;1.10;99.90;;;;;;5087363;28;20222;-77
2022/12/05 05:20:51;;;;;;;32.27;19.60;;;1.10;99.90;;;;;;5075719;28;20211;-79
2022/12/05 05:23:19;;;;;;;30.07;18.67;;;1.10;99.90;;;;;;5075434;28;20586;-78
2022/12/05 05:25:52;;;;;;;26.73;17.43;;;1.10;99.90;;;;;;5075446;28;20204;-77
2022/12/05 05:28:20;;;;;;;27.93;17.67;;;1.20;99.90;;;;;;5075209;28;20211;-79
2022/12/05 05:30:49;;;;;;;28.30;16.90;;;1.20;99.90;;;;;;5075242;28;20668;-73
2022/12/05 05:33:17;;;;;;;27.20;16.93;;;1.10;99.90;;;;;;5074834;28;20207;-76
2022/12/05 05:35:45;;;;;;;25.53;16.37;;;1.20;99.90;;;;;;5086230;28;20203;-74
2022/12/05 05:38:15;;;;;;;26.60;17.33;;;1.20;99.90;;;;;;5075723;28;20230;-78
2022/12/05 05:40:43;;;;;;;24.73;16.37;;;1.10;99.90;;;;;;5075296;28;20203;-78
2022/12/05 05:43:11;;;;;;;25.43;16.73;;;1.20;99.90;;;;;;5075153;28;20207;-77
2022/12/05 05:45:39;;;;;;;25.97;16.87;;;1.30;99.90;;;;;;5075021;28;20212;-77
2022/12/05 05:48:07;;;;;;;25.03;16.63;;;1.20;99.90;;;;;;5076250;28;20204;-79
2022/12/05 05:50:35;;;;;;;27.67;17.63;;;1.20;99.90;;;;;;5077180;28;20223;-78
2022/12/05 05:53:03;;;;;;;30.13;18.40;;;1.20;99.90;;;;;;5076941;28;20254;-77
2022/12/05 05:55:33;;;;;;;29.97;17.83;;;1.30;99.90;;;;;;5086832;28;20574;-77
2022/12/05 05:58:01;;;;;;;27.30;17.40;;;1.30;99.90;;;;;;5095274;28;20227;-76
2022/12/05 06:00:29;;;;;;;27.03;17.53;;;1.30;99.90;;;;;;5077048;28;20219;-78
2022/12/05 06:02:59;;;;;;;27.43;16.80;;;1.30;99.90;;;;;;5074549;28;20211;-76
2022/12/05 06:05:27;;;;;;;25.57;16.07;;;1.30;99.90;;;;;;5087176;28;20199;-79
2022/12/05 06:07:58;;;;;;;25.53;16.50;;;1.40;99.90;;;;;;5095030;28;20234;-79
2022/12/05 06:10:28;;;;;;;25.60;17.07;;;1.40;99.90;;;;;;5078395;28;20207;-79
2022/12/05 06:12:59;;;;;;;24.00;15.90;;;1.40;99.90;;;;;;5092582;28;20217;-79
2022/12/05 06:15:27;;;;;;;27.53;17.23;;;1.40;99.90;;;;;;5094777;28;20210;-79
2022/12/05 06:17:57;;;;;;;27.43;16.77;;;1.40;99.90;;;;;;5093129;28;20725;-78
2022/12/05 06:20:25;;;;;;;25.13;16.77;;;1.40;99.90;;;;;;5074597;28;20612;-79
2022/12/05 06:22:53;;;;;;;26.70;17.63;;;1.40;99.90;;;;;;5074096;28;20704;-79
2022/12/05 06:25:21;;;;;;;25.60;17.37;;;1.50;99.90;;;;;;5091332;28;20207;-79
2022/12/05 06:27:49;;;;;;;26.97;17.10;;;1.40;99.90;;;;;;5076889;28;20211;-78
2022/12/05 06:30:19;;;;;;;25.57;16.87;;;1.50;99.90;;;;;;5075008;28;20298;-77
2022/12/05 06:32:50;;;;;;;25.53;16.93;;;1.50;99.90;;;;;;5072335;28;20661;-79
2022/12/05 06:35:18;;;;;;;25.83;16.50;;;1.50;99.90;;;;;;5074300;28;20287;-79
2022/12/05 06:37:46;;;;;;;25.97;16.90;;;1.50;99.90;;;;;;5073827;28;20712;-76
2022/12/05 06:40:14;;;;;;;26.57;17.77;;;1.50;99.90;;;;;;5074890;28;20226;-79
2022/12/05 06:42:42;;;;;;;25.80;17.80;;;1.50;99.90;;;;;;5073835;28;20580;-81
2022/12/05 06:45:13;;;;;;;28.57;17.20;;;1.50;99.90;;;;;;5074440;28;20303;-79
2022/12/05 06:47:42;;;;;;;29.90;18.10;;;1.50;99.90;;;;;;5073642;28;20207;-78
2022/12/05 06:50:10;;;;;;;29.13;17.90;;;1.60;99.90;;;;;;5088742;28;20203;-78
2022/12/05 06:52:39;;;;;;;26.57;17.33;;;1.50;99.90;;;;;;5093532;28;20215;-79
2022/12/05 06:55:07;;;;;;;28.70;17.50;;;1.60;99.90;;;;;;5094373;28;20233;-79
2022/12/05 06:57:36;;;;;;;29.60;18.87;;;1.60;99.90;;;;;;5089761;28;20242;-79
2022/12/05 07:02:53;;;;;;;28.33;18.03;;;1.60;99.90;;;;;;5073331;28;20224;-78
2022/12/05 07:05:21;;;;;;;32.33;18.93;;;1.60;99.90;;;;;;5074236;28;20203;-77
2022/12/05 07:07:50;;;;;;;33.77;19.23;;;1.60;99.90;;;;;;5074262;28;20226;-80
2022/12/05 07:10:18;;;;;;;29.77;18.30;;;1.70;99.90;;;;;;5081735;28;20219;-79
2022/12/05 07:12:48;;;;;;;37.20;22.97;;;1.60;99.90;;;;;;5093593;28;20215;-79
2022/12/05 07:15:16;;;;;;;36.97;21.10;;;1.60;99.90;;;;;;5094532;28;20211;-77
2022/12/05 07:17:44;;;;;;;33.83;19.57;;;1.60;99.90;;;;;;5075141;28;20242;-75
2022/12/05 07:20:16;;;;;;;32.63;19.57;;;1.70;99.90;;;;;;5074542;28;20207;-78
2022/12/05 07:22:45;;;;;;;34.87;19.83;;;1.70;99.90;;;;;;5073474;28;20549;-79
2022/12/05 07:25:13;;;;;;;35.57;18.90;;;1.70;99.90;;;;;;5073165;28;20570;-79
2022/12/05 07:27:40;;;;;;;33.10;18.33;;;1.70;99.90;;;;;;5074050;28;20207;-79
2022/12/05 07:30:09;;;;;;;36.70;19.63;;;1.80;99.90;;;;;;5073027;28;20569;-79
2022/12/05 07:32:38;;;;;;;33.67;19.30;;;1.80;99.90;;;;;;5073150;28;20212;-79
2022/12/05 07:35:07;;;;;;;33.23;18.50;;;1.70;99.90;;;;;;5073337;28;20208;-79
2022/12/05 07:37:36;;;;;;;35.70;19.27;;;1.80;99.90;;;;;;5074494;28;20208;-78
2022/12/05 07:40:05;;;;;;;35.30;19.50;;;1.80;99.90;;;;;;5073603;28;20219;-79
2022/12/05 07:42:33;;;;;;;33.73;20.00;;;1.80;99.90;;;;;;5072466;28;20211;-78
2022/12/05 07:45:05;;;;;;;37.33;20.43;;;1.90;99.90;;;;;;5072665;28;20215;-79
2022/12/05 07:47:33;;;;;;;35.70;21.20;;;1.80;99.90;;;;;;5072485;28;20669;-81
2022/12/05 07:50:01;;;;;;;39.53;21.80;;;1.90;99.90;;;;;;5073579;28;20223;-80
2022/12/05 07:52:32;;;;;;;38.50;21.27;;;1.90;99.90;;;;;;5072433;28;20215;-79
2022/12/05 07:55:02;;;;;;;40.40;21.83;;;1.90;99.90;;;;;;5072905;28;20219;-78
2022/12/05 07:57:30;;;;;;;39.17;21.80;;;1.90;99.90;;;;;;5074375;28;20214;-75
2022/12/05 07:59:58;;;;;;;44.70;25.97;;;2.00;99.90;;;;;;5075872;28;20239;-80
2022/12/05 08:02:27;;;;;;;68.40;38.07;;;2.00;99.90;;;;;;5074220;28;20211;-79
2022/12/05 08:04:55;;;;;;;55.87;30.53;;;2.00;99.90;;;;;;5074388;28;20242;-79
2022/12/05 08:07:23;;;;;;;54.23;31.60;;;2.00;99.90;;;;;;5073414;28;20234;-75
2022/12/05 08:09:51;;;;;;;48.47;27.40;;;2.00;99.90;;;;;;5089950;28;20210;-77
2022/12/05 08:12:20;;;;;;;42.03;25.57;;;2.10;99.90;;;;;;5094021;28;20214;-79
2022/12/05 08:14:48;;;;;;;38.77;22.90;;;2.10;99.90;;;;;;5093060;28;20199;-79
2022/12/05 08:17:17;;;;;;;41.20;22.57;;;2.10;99.90;;;;;;5072406;28;20433;-79
2022/12/05 08:19:45;;;;;;;41.60;21.73;;;2.20;99.90;;;;;;5072116;28;20549;-78
2022/12/05 08:22:14;;;;;;;35.50;21.00;;;2.20;99.90;;;;;;5072798;28;20555;-79
2022/12/05 08:24:43;;;;;;;38.60;22.30;;;2.10;99.90;;;;;;5072828;28;20290;-78
2022/12/05 08:27:11;;;;;;;35.67;21.17;;;2.20;99.90;;;;;;5072394;28;20211;-77
2022/12/05 08:29:40;;;;;;;39.27;21.40;;;2.20;99.90;;;;;;5072341;28;20676;-79
2022/12/05 08:32:08;;;;;;;35.83;21.93;;;2.30;99.90;;;;;;5080115;28;20203;-79
2022/12/05 08:34:41;;;;;;;34.20;20.90;;;2.30;99.90;;;;;;5092222;28;20680;-79
2022/12/05 08:37:09;;;;;;;37.13;21.90;;;2.30;99.90;;;;;;5092339;28;20711;-80
2022/12/05 08:39:37;;;;;;;57.70;48.60;;;2.40;99.90;;;;;;5091596;28;20633;-79
2022/12/05 08:42:06;;;;;;;33.83;24.70;;;5.30;99.90;;;;;;5079816;28;20298;-79
2022/12/05 08:44:34;;;;;;;31.70;18.10;;;4.30;99.90;;;;;;5072146;28;20211;-79
2022/12/05 08:47:05;;;;;;;33.00;18.73;;;3.80;99.90;;;;;;5071876;28;20204;-80
2022/12/05 08:49:34;;;;;;;29.73;18.73;;;3.30;99.90;;;;;;5071748;28;20680;-76
2022/12/05 08:52:02;;;;;;;32.80;18.07;;;3.30;99.90;;;;;;5072799;28;20203;-78
2022/12/05 08:54:30;;;;;;;33.13;19.27;;;3.20;99.90;;;;;;5090797;28;20231;-76
2022/12/05 08:57:22;;;;;;;27.20;17.53;;;3.10;99.90;;;;;;5080285;28;20229;-80
2022/12/05 08:59:57;;;;;;;26.40;16.43;;;2.90;99.90;;;;;;5083470;28;20226;-79
2022/12/05 09:02:27;;;;;;;27.00;16.67;;;2.80;99.90;;;;;;5091775;28;20313;-76
2022/12/05 09:04:55;;;;;;;28.20;16.60;;;2.80;99.90;;;;;;5085421;28;20207;-80
2022/12/05 09:07:35;;;;;;;30.57;18.10;;;2.80;99.90;;;;;;5090490;28;20230;-77
2022/12/05 09:10:05;;;;;;;30.03;17.93;;;2.70;99.90;;;;;;5092423;28;20765;-78
2022/12/05 09:12:35;;;;;;;28.30;17.50;;;2.70;99.90;;;;;;5087588;28;20207;-79
2022/12/05 09:15:03;;;;;;;28.83;18.13;;;2.70;99.90;;;;;;5090944;28;20229;-79
2022/12/05 09:17:33;;;;;;;27.07;17.23;;;2.70;99.90;;;;;;5091704;28;20727;-81
2022/12/05 09:20:01;;;;;;;26.10;16.77;;;2.80;99.90;;;;;;5091879;28;20495;-78
2022/12/05 09:22:30;;;;;;;26.67;17.03;;;2.80;99.90;;;;;;5075440;28;20216;-78
2022/12/05 09:24:59;;;;;;;26.27;17.20;;;2.80;99.90;;;;;;5075048;28;20203;-78
2022/12/05 09:27:28;;;;;;;28.60;17.90;;;2.90;99.90;;;;;;5080854;28;20667;-77
2022/12/05 09:29:56;;;;;;;24.77;16.47;;;2.90;99.90;;;;;;5080682;28;20555;-79
2022/12/05 09:32:25;;;;;;;26.33;16.67;;;3.00;99.90;;;;;;5077249;28;20662;-78
2022/12/05 09:34:55;;;;;;;25.57;16.80;;;2.90;99.90;;;;;;5087283;28;20214;-79
2022/12/05 09:37:24;;;;;;;24.33;16.17;;;2.90;99.90;;;;;;5092181;28;20206;-76
2022/12/05 09:40:15;;;;;;;25.90;16.20;;;2.90;99.90;;;;;;5092421;28;20264;-77
2022/12/05 09:42:56;;;;;;;25.50;15.57;;;2.90;99.90;;;;;;5090208;28;20714;-77
2022/12/05 09:45:28;;;;;;;27.23;17.27;;;3.00;99.90;;;;;;5079610;28;20209;-76
2022/12/05 09:48:00;;;;;;;27.43;17.03;;;3.00;99.90;;;;;;5089310;28;20225;-73
2022/12/05 09:50:31;;;;;;;24.67;15.97;;;3.20;99.90;;;;;;5091353;28;20195;-74
2022/12/05 09:53:07;;;;;;;24.73;15.83;;;3.10;99.90;;;;;;5084751;28;20211;-75
2022/12/05 09:55:46;;;;;;;23.90;16.33;;;3.20;99.90;;;;;;5072978;28;20211;-73
2022/12/05 09:58:37;;;;;;;22.60;15.33;;;3.20;99.90;;;;;;5074047;28;20218;-73
2022/12/05 10:01:23;;;;;;;25.27;16.13;;;3.20;99.90;;;;;;5078759;28;20208;-79
2022/12/05 10:04:05;;;;;;;26.37;17.20;;;3.20;99.90;;;;;;5093731;28;20541;-76
2022/12/05 10:06:40;;;;;;;25.20;16.63;;;3.30;99.90;;;;;;5095878;28;20620;-75
2022/12/05 10:09:23;;;;;;;27.83;17.90;;;3.30;99.90;;;;;;5099971;28;20198;-73
2022/12/05 10:11:58;;;;;;;23.53;16.10;;;3.30;99.90;;;;;;5097863;28;20230;-74
2022/12/05 10:14:33;;;;;;;27.73;17.50;;;3.40;99.90;;;;;;5098321;28;20676;-75
2022/12/05 10:17:09;;;;;;;24.80;16.37;;;3.30;99.90;;;;;;5095280;28;20183;-76
2022/12/05 10:19:42;;;;;;;28.50;17.77;;;3.40;99.90;;;;;;5082427;28;20218;-79
2022/12/05 10:22:16;;;;;;;26.50;17.50;;;3.40;99.90;;;;;;5091706;28;20594;-78
2022/12/05 10:24:51;;;;;;;27.47;17.53;;;3.40;99.90;;;;;;5091613;28;20201;-76
2022/12/05 10:27:28;;;;;;;27.83;17.47;;;3.40;99.90;;;;;;5089384;28;20665;-75
2022/12/05 10:30:06;;;;;;;26.43;17.47;;;3.40;99.90;;;;;;5095588;28;20193;-76
2022/12/05 10:32:40;;;;;;;25.37;17.67;;;3.50;99.90;;;;;;5083224;28;20207;-77
2022/12/05 10:35:16;;;;;;;25.80;17.20;;;3.40;99.90;;;;;;5078674;28;20195;-77
2022/12/05 10:37:49;;;;;;;26.70;17.07;;;3.40;99.90;;;;;;5086582;28;20716;-79
2022/12/05 10:40:17;;;;;;;27.17;17.67;;;3.40;99.90;;;;;;5086558;28;20217;-77
2022/12/05 10:42:47;;;;;;;27.17;17.37;;;3.40;99.90;;;;;;5093679;28;20210;-77
2022/12/05 10:45:19;;;;;;;26.00;17.57;;;3.50;99.90;;;;;;5090574;28;20203;-76
2022/12/05 10:47:55;;;;;;;27.80;18.03;;;3.60;99.90;;;;;;5083283;28;20306;-77
2022/12/05 10:50:27;;;;;;;26.73;17.27;;;3.60;99.90;;;;;;5088608;28;20231;-76
2022/12/05 10:53:01;;;;;;;25.80;17.57;;;3.80;99.90;;;;;;5094109;28;20211;-75
2022/12/05 10:55:34;;;;;;;24.00;16.43;;;3.60;99.90;;;;;;5094484;28;20195;-78
2022/12/05 10:58:13;;;;;;;24.50;16.53;;;3.60;99.90;;;;;;5081318;28;20249;-78
2022/12/05 11:00:48;;;;;;;24.03;16.57;;;3.70;99.90;;;;;;5090700;28;20224;-78
2022/12/05 11:03:29;;;;;;;23.43;17.30;;;3.70;99.90;;;;;;5074482;28;20199;-76
2022/12/05 11:05:59;;;;;;;23.80;16.50;;;3.70;99.90;;;;;;5085440;28;20688;-76
2022/12/05 11:08:32;;;;;;;25.27;17.53;;;3.70;99.90;;;;;;5090868;28;20304;-74
2022/12/05 11:11:23;;;;;;;22.60;16.50;;;3.80;99.90;;;;;;5093812;28;20227;-77
2022/12/05 11:13:53;;;;;;;38.27;24.57;;;3.70;99.90;;;;;;5093649;28;20286;-79
2022/12/05 11:16:24;;;;;;;24.53;15.93;;;3.70;99.90;;;;;;5094086;28;20242;-78
2022/12/05 11:18:53;;;;;;;24.93;16.67;;;3.70;99.90;;;;;;5092716;28;20229;-77
2022/12/05 11:21:21;;;;;;;20.03;15.70;;;3.80;99.90;;;;;;5094595;28;20237;-78
2022/12/05 11:23:50;;;;;;;22.50;15.77;;;3.80;99.90;;;;;;5091271;28;20208;-80
2022/12/05 11:26:34;;;;;;;21.80;16.37;;;3.90;99.90;;;;;;5093495;28;20580;-77
2022/12/05 11:29:03;;;;;;;22.10;16.47;;;4.00;99.90;;;;;;5094044;28;20214;-78
2022/12/05 11:31:32;;;;;;;19.67;15.73;;;4.00;99.90;;;;;;5093552;28;20225;-78
2022/12/05 11:34:17;;;;;;;22.83;16.03;;;4.00;99.90;;;;;;5089892;28;20306;-77
2022/12/05 11:36:50;;;;;;;22.13;16.10;;;4.00;99.90;;;;;;5091565;28;20232;-76
2022/12/05 11:39:23;;;;;;;20.43;15.10;;;4.00;99.90;;;;;;5094220;28;20229;-76
2022/12/05 11:42:16;;;;;;;21.20;15.90;;;3.90;99.90;;;;;;5089466;28;20688;-78
2022/12/05 11:45:19;;;;;;;23.57;15.77;;;4.00;99.90;;;;;;5073832;28;20198;-77
2022/12/05 11:48:03;;;;;;;22.37;15.73;;;4.10;99.90;;;;;;5070082;28;20213;-76
2022/12/05 11:50:50;;;;;;;22.97;16.67;;;4.10;99.90;;;;;;5078604;28;20203;-75
2022/12/05 11:53:41;;;;;;;23.00;15.63;;;4.20;99.90;;;;;;5093117;28;20235;-76
2022/12/05 11:56:21;;;;;;;22.30;15.93;;;4.20;99.90;;;;;;5093667;28;20238;-76
2022/12/05 11:59:08;;;;;;;20.93;15.67;;;4.10;99.90;;;;;;5083069;28;20245;-78
2022/12/05 12:01:53;;;;;;;22.63;16.70;;;4.20;99.90;;;;;;5080840;28;20230;-80
2022/12/05 12:04:48;;;;;;;21.33;16.20;;;4.20;99.90;;;;;;5085454;28;20192;-76
2022/12/05 12:07:29;;;;;;;24.13;16.63;;;4.20;99.90;;;;;;5080199;28;20701;-78
2022/12/05 12:10:12;;;;;;;22.80;17.77;;;4.10;99.90;;;;;;5080505;28;20206;-76
2022/12/05 12:12:51;;;;;;;20.17;15.73;;;4.20;99.90;;;;;;5083135;28;20400;-75
2022/12/05 12:15:42;;;;;;;52.87;18.33;;;4.10;99.90;;;;;;5073051;28;20196;-75
2022/12/05 12:18:31;;;;;;;24.37;16.93;;;4.50;99.90;;;;;;5077583;28;20630;-78
2022/12/05 12:21:13;;;;;;;21.93;16.00;;;4.40;99.90;;;;;;5090414;28;20601;-78
2022/12/05 12:23:56;;;;;;;21.50;16.13;;;4.40;99.90;;;;;;5092472;28;20230;-75
2022/12/05 12:26:32;;;;;;;23.00;16.50;;;4.20;99.90;;;;;;5081551;28;20218;-79
2022/12/05 12:29:13;;;;;;;22.23;17.00;;;4.30;99.90;;;;;;5089026;28;20255;-78
2022/12/05 12:31:57;;;;;;;22.37;16.43;;;4.20;99.90;;;;;;5093038;28;20195;-79
2022/12/05 12:34:44;;;;;;;22.97;16.67;;;4.20;99.90;;;;;;5091748;28;20565;-79
2022/12/05 12:37:25;;;;;;;24.73;17.23;;;4.20;99.90;;;;;;5091637;28;20225;-79
2022/12/05 12:40:03;;;;;;;23.93;16.83;;;4.20;99.90;;;;;;5074657;28;20278;-78
2022/12/05 12:42:39;;;;;;;19.70;15.70;;;4.20;99.90;;;;;;5072372;28;20563;-77
2022/12/05 12:45:35;;;;;;;20.80;16.33;;;4.20;99.90;;;;;;5077752;28;20308;-75
2022/12/05 12:48:17;;;;;;;20.83;16.47;;;4.20;99.90;;;;;;5092129;28;20210;-79
2022/12/05 12:50:47;;;;;;;20.80;15.30;;;4.20;99.90;;;;;;5092751;28;20193;-75
2022/12/05 12:53:59;;;;;;;20.53;16.10;;;4.20;99.90;;;;;;5094724;28;20649;-77
2022/12/05 12:56:37;;;;;;;24.30;17.33;;;4.30;99.90;;;;;;5037481;28;20706;-78
2022/12/05 12:59:26;;;;;;;19.63;15.30;;;4.30;99.90;;;;;;5070937;28;20207;-78
2022/12/05 13:02:01;;;;;;;21.07;15.87;;;4.30;99.90;;;;;;5085169;28;20589;-78
2022/12/05 13:04:39;;;;;;;19.17;15.53;;;4.30;99.90;;;;;;5091342;28;20198;-77
2022/12/05 13:07:13;;;;;;;20.47;15.93;;;4.40;99.90;;;;;;5091892;28;20676;-76
2022/12/05 13:09:48;;;;;;;19.63;15.60;;;4.40;99.90;;;;;;5077383;28;20716;-77
2022/12/05 13:12:24;;;;;;;21.93;17.07;;;4.40;99.90;;;;;;5083996;28;20218;-78
2022/12/05 13:14:59;;;;;;;21.13;17.17;;;4.50;99.90;;;;;;5088492;28;20208;-80